To NAV CANADA Home Page Login to a new session Search on AWWS site Feedback and Comments Disclaimer Vers la page française équivalente Tips FAQ What's new on the site To the Forecasts and Observations / NOTAM section To "File a Flight Plan" website Publications and other links Update of the User's profile FIC Telephone Numbers My Weather Data Folder Route Weather Data Regional Weather Data Local Weather Data To the Forecasts and Observations / NOTAM section
Request Generated 08/27/2016 at 06:20:58 UTC . Weather information available at that time is displayed.

METAR/TAF

STONY RAPIDS/SK    (show WxCam)

METAR CYSF 270600Z AUTO 11002KT 9SM CLR 10/09 A2974 RMK SLP079=
METAR CYSF 270500Z AUTO 11003KT 9SM BKN230 BKN250 12/11 A2974 RMK
SLP080=
METAR CYSF 270400Z AUTO 10005KT 9SM CLR 14/11 A2975 RMK SLP083
DENSITY ALT 1000FT=

TAF CYSF 270538Z 2706/2718 VRB03KT P6SM SCT050 TEMPO 2706/2709 P6SM
-SHRA BKN050
FM270900 VRB03KT P6SM BKN050 TEMPO 2709/2718 P6SM -SHRA PROB30
2709/2714 1/2SM FG VV002
RMK FCST BASED ON AUTO OBS. NXT FCST BY 271200Z=
Your time UTC time
Weather data provided by Environment Canada and NAV CANADA